createdAt,value
2018-09-22T20:56:16.170Z,1003.74
2018-09-22T20:57:16.227Z,1003.81
2018-09-22T20:58:16.067Z,1003.71
2018-09-22T20:59:15.955Z,1003.72
2018-09-22T21:19:41.762Z,1003.58
2018-09-22T21:20:41.598Z,1003.54
2018-09-22T21:21:41.673Z,1003.51
2018-09-22T21:22:41.860Z,1003.49
2018-09-22T21:23:41.509Z,1003.51
2018-09-22T21:25:09.254Z,1003.52
2018-09-22T21:26:09.294Z,1003.49
2018-09-22T21:27:09.229Z,1003.48
2018-09-22T21:28:09.250Z,1003.54
2018-09-22T21:29:09.190Z,1003.49
2018-09-22T21:30:09.243Z,1003.60
2018-09-22T21:31:09.156Z,1003.58
2018-09-22T21:32:09.173Z,1003.56
2018-09-22T21:33:09.133Z,1003.57
2018-09-22T21:34:09.160Z,1003.55
2018-09-22T21:35:09.142Z,1003.54
2018-09-22T21:36:09.106Z,1003.53
2018-09-22T21:37:09.113Z,1003.51
2018-09-22T21:38:09.086Z,1003.50
2018-09-22T21:39:09.127Z,1003.51
2018-09-22T21:40:09.057Z,1003.51
2018-09-22T21:41:09.058Z,1003.51
2018-09-22T21:42:09.116Z,1003.59
2018-09-22T21:43:09.036Z,1003.58
2018-09-22T21:44:09.038Z,1003.53
2018-09-22T21:45:09.038Z,1003.45
2018-09-22T21:46:09.003Z,1003.42
2018-09-22T21:47:09.054Z,1003.42
2018-09-22T21:48:08.980Z,1003.44
2018-09-22T21:49:08.971Z,1003.44
2018-09-22T21:50:08.998Z,1003.50
2018-09-22T21:51:08.966Z,1003.49
2018-09-22T21:52:08.932Z,1003.45
2018-09-22T21:53:08.928Z,1003.43
2018-09-22T21:54:08.919Z,1003.42
2018-09-22T21:55:08.970Z,1003.44
2018-09-22T21:56:09.000Z,1003.42
2018-09-22T21:57:08.893Z,1003.46
2018-09-22T21:58:08.913Z,1003.37
2018-09-22T21:59:08.889Z,1003.37
2018-09-22T22:00:08.866Z,1003.34
2018-09-22T22:01:08.852Z,1003.30
2018-09-22T22:02:08.866Z,1003.34
2018-09-22T22:03:08.830Z,1003.35
2018-09-22T22:04:08.799Z,1003.35
2018-09-22T22:05:08.818Z,1003.36
2018-09-22T22:06:08.787Z,1003.37
2018-09-22T22:07:08.804Z,1003.39
2018-09-22T22:08:08.792Z,1003.36
2018-09-22T22:09:08.770Z,1003.36
2018-09-22T22:10:08.738Z,1003.37
2018-09-22T22:11:08.741Z,1003.33
2018-09-22T22:12:08.747Z,1003.28
2018-09-22T22:13:08.723Z,1003.34
2018-09-22T22:14:08.704Z,1003.30
2018-09-22T22:15:08.716Z,1003.32
2018-09-22T22:16:08.690Z,1003.30
2018-09-22T22:17:08.718Z,1003.25
2018-09-22T22:18:08.665Z,1003.19
2018-09-22T22:19:08.642Z,1003.19
2018-09-22T22:20:08.641Z,1003.29
2018-09-22T22:21:08.642Z,1003.27
2018-09-22T22:22:08.611Z,1003.23
2018-09-22T22:23:08.636Z,1003.22
2018-09-22T22:24:08.608Z,1003.19
2018-09-22T22:25:08.594Z,1003.22
2018-09-22T22:26:08.577Z,1003.18
2018-09-22T22:27:08.571Z,1003.21
2018-09-22T22:28:08.563Z,1003.20
2018-09-22T22:29:08.575Z,1003.24
2018-09-22T22:30:08.525Z,1003.28
2018-09-22T22:31:08.513Z,1003.31
2018-09-22T22:32:08.503Z,1003.37
2018-09-22T22:33:08.495Z,1003.36
2018-09-22T22:34:08.489Z,1003.38
2018-09-22T22:35:08.522Z,1003.40
2018-09-22T22:36:08.481Z,1003.35
2018-09-22T22:37:08.465Z,1003.33
2018-09-22T22:38:08.450Z,1003.30
2018-09-22T22:39:08.435Z,1003.25
2018-09-22T22:40:08.420Z,1003.22
2018-09-22T22:41:08.452Z,1003.21
2018-09-22T22:42:08.397Z,1003.17
2018-09-22T22:43:08.405Z,1003.18
2018-09-22T22:44:08.383Z,1003.21
2018-09-22T22:45:08.386Z,1003.20
2018-09-22T22:46:08.351Z,1003.12
2018-09-22T22:47:08.371Z,1003.13
2018-09-22T22:48:08.356Z,1003.03
2018-09-22T22:49:08.331Z,1003.04
2018-09-22T22:50:08.311Z,1003.04
2018-09-22T22:51:08.315Z,1003.05
2018-09-22T22:52:08.348Z,1003.09
2018-09-22T22:53:08.295Z,1003.06
2018-09-22T22:54:08.280Z,1003.06
2018-09-22T22:55:08.271Z,1003.06
2018-09-22T22:56:08.278Z,1002.99
2018-09-22T22:57:08.256Z,1002.96
2018-09-22T22:58:08.270Z,1002.99
2018-09-22T22:59:08.221Z,1003.01
2018-09-22T23:00:08.210Z,1003.01
2018-09-22T23:01:08.212Z,1003.01
2018-09-22T23:02:08.212Z,1002.97
2018-09-22T23:03:08.174Z,1002.97
2018-09-22T23:04:08.188Z,1002.91
2018-09-22T23:05:08.163Z,1002.92
2018-09-22T23:06:08.143Z,1002.89
2018-09-22T23:07:08.137Z,1002.82
2018-09-22T23:08:08.126Z,1002.85
2018-09-22T23:09:08.155Z,1002.85
2018-09-22T23:10:08.103Z,1002.82
2018-09-22T23:11:08.161Z,1002.86
2018-09-22T23:12:08.086Z,1002.92
2018-09-22T23:13:08.080Z,1002.90
2018-09-22T23:14:08.056Z,1002.94
2018-09-22T23:15:08.097Z,1002.93
2018-09-22T23:16:08.049Z,1002.93
2018-09-22T23:17:08.021Z,1002.91
2018-09-22T23:18:08.025Z,1002.93
2018-09-22T23:19:08.033Z,1002.94
2018-09-22T23:20:08.000Z,1002.86
2018-09-22T23:21:08.081Z,1002.85
2018-09-22T23:22:07.980Z,1002.81
2018-09-22T23:23:07.964Z,1002.74
2018-09-22T23:24:07.969Z,1002.73
2018-09-22T23:25:07.938Z,1002.67
2018-09-22T23:26:07.931Z,1002.67
2018-09-22T23:27:07.955Z,1002.68
2018-09-22T23:28:07.914Z,1002.69
2018-09-22T23:29:07.902Z,1002.71
2018-09-22T23:30:07.901Z,1002.77
2018-09-22T23:31:07.872Z,1002.77
2018-09-22T23:32:07.904Z,1002.76
2018-09-22T23:33:07.866Z,1002.72
2018-09-22T23:34:07.845Z,1002.74
2018-09-22T23:35:07.838Z,1002.71
2018-09-22T23:36:07.826Z,1002.71
2018-09-22T23:37:07.843Z,1002.68
2018-09-22T23:38:07.873Z,1002.71
2018-09-22T23:39:07.789Z,1002.68
2018-09-22T23:40:07.781Z,1002.65
2018-09-22T23:41:07.771Z,1002.67
2018-09-22T23:42:07.765Z,1002.69
2018-09-22T23:43:07.747Z,1002.68
2018-09-22T23:44:07.790Z,1002.70
2018-09-22T23:45:07.745Z,1002.72
2018-09-22T23:46:07.719Z,1002.74
2018-09-22T23:47:07.707Z,1002.80
2018-09-22T23:48:07.706Z,1002.78
2018-09-22T23:49:07.685Z,1002.76
2018-09-22T23:50:07.708Z,1002.79
2018-09-22T23:51:07.682Z,1002.67
2018-09-22T23:52:07.675Z,1002.68
2018-09-22T23:53:07.656Z,1002.60
2018-09-22T23:54:07.631Z,1002.65
2018-09-22T23:55:07.624Z,1002.63
2018-09-22T23:56:07.648Z,1002.60
2018-09-22T23:57:07.616Z,1002.61
2018-09-22T23:58:07.588Z,1002.64
2018-09-22T23:59:07.594Z,1002.65
